Itapetim, Brazil
Current Conditions -  °F | °C
As of 12:00 AM on Monday 24 Nov 2014 (Local Time) from SBKG Reporting Station
Scattered Clouds Scattered Clouds  
Wind Chill: 70°   Ceiling: Unl
Heat Index: 70°   Visibility: 6mi
Dew Point: 68°   Wind: 12mph
Humidity: 94%   Direction: 90°E
Pressure: 30"   Gusts: NA
Location:  7.38°S, 37.19°W
Report Text: SBKG 240300Z 09010KT 9999 FEW007 SCT017 21/20 Q1016
Loading
Personal Weather Stations






























Interactive Weather Map New forecast layout! Learn more

10-Day Weather Forecast

Advertisements
Track Severe Weather on mobile